Time;durP1;ratioP1;P1;durP2;ratioP2;P2;SDS_P1;SDS_P2;PMS_P1;PMS_P2;Temp;Humidity;BMP_temperature;BMP_pressure;BME280_temperature;BME280_humidity;BME280_pressure;Samples;Min_cycle;Max_cycle;Signal;HPM_P1;HPM_P2
2022/02/19 00:02:17;;;;;;;11.57;2.13;;;;;;;5.05;68.89;100491.56;5038297;28;20143;-80
2022/02/19 00:04:42;;;;;;;10.25;1.92;;;;;;;5.04;68.95;100465.66;5019807;28;20176;-81
2022/02/19 00:07:08;;;;;;;10.27;2.13;;;;;;;5.06;69.20;100474.25;5006538;28;20048;-81
2022/02/19 00:09:33;;;;;;;17.27;2.13;;;;;;;5.03;69.60;100487.31;5037934;28;20041;-80
2022/02/19 00:12:00;;;;;;;9.25;1.80;;;;;;;5.01;69.40;100510.72;5031998;28;20060;-81
2022/02/19 00:14:25;;;;;;;9.25;2.05;;;;;;;4.97;69.76;100496.09;5020623;28;20302;-80
2022/02/19 00:16:51;;;;;;;15.75;2.22;;;;;;;4.99;69.34;100508.16;5023395;28;20037;-80
2022/02/19 00:19:16;;;;;;;10.43;1.98;;;;;;;4.99;69.03;100500.34;5020968;28;20045;-81
2022/02/19 00:21:41;;;;;;;8.73;1.52;;;;;;;4.99;68.97;100502.09;5037415;28;20045;-81
2022/02/19 00:24:07;;;;;;;10.25;1.42;;;;;;;5.00;68.73;100541.00;5032223;28;20226;-81
2022/02/19 00:26:33;;;;;;;10.40;2.03;;;;;;;4.98;68.81;100502.97;5037084;28;20396;-81
2022/02/19 00:28:59;;;;;;;12.20;1.45;;;;;;;4.99;68.74;100552.25;5036367;28;20358;-81
2022/02/19 00:31:25;;;;;;;7.72;1.30;;;;;;;5.00;68.14;100530.63;5038020;28;20041;-82
2022/02/19 00:33:50;;;;;;;14.23;1.40;;;;;;;5.00;68.58;100554.00;5032894;28;20083;-81
2022/02/19 00:36:16;;;;;;;7.65;2.42;;;;;;;4.99;68.44;100554.84;5036891;28;20091;-82
2022/02/19 00:38:41;;;;;;;9.93;1.60;;;;;;;4.97;68.44;100555.78;5037326;28;20037;-81
2022/02/19 00:41:07;;;;;;;9.45;1.60;;;;;;;4.98;67.90;100571.34;5019569;28;20052;-80
2022/02/19 00:43:32;;;;;;;9.27;1.63;;;;;;;5.00;67.80;100550.50;5036160;28;20053;-81
2022/02/19 00:45:57;;;;;;;11.43;1.40;;;;;;;4.97;66.82;100592.13;5017107;28;20049;-80
2022/02/19 00:48:23;;;;;;;9.63;1.30;;;;;;;4.99;67.34;100572.19;5037753;28;20033;-81
2022/02/19 00:50:49;;;;;;;12.02;1.52;;;;;;;4.98;67.57;100593.81;5038631;28;20060;-80
2022/02/19 00:53:15;;;;;;;21.52;1.92;;;;;;;4.96;66.71;100590.41;5021440;28;20235;-81
2022/02/19 00:55:41;;;;;;;9.73;1.15;;;;;;;4.94;66.65;100602.56;5020566;28;20405;-80
2022/02/19 00:58:07;;;;;;;6.53;1.38;;;;;;;4.90;66.67;100585.38;5023240;28;20037;-81
2022/02/19 01:00:33;;;;;;;8.05;1.35;;;;;;;4.91;67.18;100618.19;5025213;28;20041;-81
2022/02/19 01:02:58;;;;;;;10.13;1.80;;;;;;;4.86;67.68;100597.53;5036971;28;20205;-81
2022/02/19 01:05:24;;;;;;;11.85;1.85;;;;;;;4.85;67.73;100619.19;5019954;28;20041;-81
2022/02/19 01:07:49;;;;;;;7.10;1.15;;;;;;;4.88;67.77;100632.09;5037382;28;20040;-81
2022/02/19 01:10:15;;;;;;;6.88;1.63;;;;;;;4.90;67.78;100668.41;5020373;28;20110;-80
2022/02/19 01:12:40;;;;;;;10.45;1.70;;;;;;;4.89;67.75;100664.94;5037778;28;20033;-81
2022/02/19 01:15:07;;;;;;;15.02;1.67;;;;;;;4.90;68.03;100645.03;5028259;28;20043;-82
2022/02/19 01:17:33;;;;;;;12.10;1.95;;;;;;;4.91;67.89;100694.31;5047285;28;20332;-81
2022/02/19 01:19:58;;;;;;;8.80;1.67;;;;;;;4.92;68.12;100709.00;5028911;28;20321;-82
2022/02/19 01:22:24;;;;;;;8.70;1.52;;;;;;;4.96;67.11;100681.25;5006419;28;20041;-81
2022/02/19 01:24:49;;;;;;;7.00;1.35;;;;;;;4.95;66.38;100676.97;5035960;28;20052;-81
2022/02/19 01:27:15;;;;;;;13.27;1.70;;;;;;;4.96;67.28;100712.38;5022078;28;20040;-81
2022/02/19 01:29:40;;;;;;;3.92;1.38;;;;;;;4.97;67.24;100709.78;5028532;28;20082;-81
2022/02/19 01:32:06;;;;;;;9.85;1.30;;;;;;;4.99;67.51;100678.59;5003814;28;20044;-81
2022/02/19 01:34:31;;;;;;;15.73;2.08;;;;;;;4.96;67.58;100723.63;5039965;28;20359;-80
2022/02/19 01:36:57;;;;;;;8.02;1.35;;;;;;;5.03;66.84;100739.94;5045317;28;20061;-80
2022/02/19 01:39:22;;;;;;;4.75;1.40;;;;;;;5.00;67.17;100738.25;5046599;28;20096;-80
2022/02/19 01:41:48;;;;;;;10.45;1.35;;;;;;;5.03;67.10;100721.75;5041050;28;20045;-81
2022/02/19 01:44:13;;;;;;;11.93;1.88;;;;;;;5.03;65.67;100724.38;4997819;28;20037;-81
2022/02/19 01:46:39;;;;;;;15.23;2.00;;;;;;;5.00;66.64;100712.31;5001563;28;20072;-81
2022/02/19 01:49:06;;;;;;;9.25;1.40;;;;;;;4.98;66.86;100747.81;5035908;28;20029;-81
2022/02/19 01:51:33;;;;;;;11.02;1.50;;;;;;;5.00;66.89;100764.22;5019003;28;20336;-81
2022/02/19 01:54:09;;;;;;;13.85;1.45;;;;;;;4.97;66.69;100743.50;5037164;28;20047;-81
2022/02/19 01:56:36;;;;;;;6.53;1.42;;;;;;;4.96;67.01;100761.69;5038073;28;20033;-81
2022/02/19 01:59:10;;;;;;;7.80;1.42;;;;;;;4.96;67.29;100765.13;5037941;28;20044;-81
2022/02/19 02:01:35;;;;;;;7.20;1.60;;;;;;;5.00;66.94;100784.09;5037817;28;20037;-79
2022/02/19 02:04:00;;;;;;;11.23;1.80;;;;;;;5.00;67.30;100782.38;5020213;28;20237;-81
2022/02/19 02:06:26;;;;;;;10.40;1.50;;;;;;;5.02;67.69;100773.69;5020004;28;20307;-81
2022/02/19 02:08:53;;;;;;;11.98;2.40;;;;;;;4.99;67.76;100787.59;5037546;28;20037;-81
2022/02/19 02:11:18;;;;;;;15.30;2.25;;;;;;;4.97;68.09;100787.63;5020545;28;20364;-81
2022/02/19 02:13:44;;;;;;;11.05;1.42;;;;;;;4.97;67.74;100792.81;5019761;28;20021;-80
2022/02/19 02:16:10;;;;;;;7.95;1.30;;;;;;;4.96;67.50;100792.84;5019980;28;20037;-81
2022/02/19 02:18:35;;;;;;;12.52;1.50;;;;;;;4.97;67.75;100797.16;5020133;28;20320;-81
2022/02/19 02:21:00;;;;;;;9.48;1.67;;;;;;;4.96;68.06;100780.72;5020285;28;20111;-81
2022/02/19 02:23:26;;;;;;;14.60;2.85;;;;;;;4.94;68.29;100797.22;5020100;28;20107;-81
2022/02/19 02:25:54;;;;;;;11.77;1.63;;;;;;;4.94;68.47;100797.22;5037432;28;20099;-81
2022/02/19 02:28:21;;;;;;;13.85;2.72;;;;;;;4.94;68.54;100820.56;5037540;28;20095;-81
2022/02/19 02:30:47;;;;;;;17.27;2.22;;;;;;;4.94;68.25;100836.13;5020277;28;20041;-81
2022/02/19 02:33:16;;;;;;;8.13;1.60;;;;;;;4.92;68.31;100793.78;5002158;28;20029;-81
2022/02/19 02:35:41;;;;;;;15.50;2.20;;;;;;;4.93;68.08;100829.22;5034639;28;20072;-81
2022/02/19 02:38:08;;;;;;;13.73;1.88;;;;;;;4.91;67.99;100842.25;5018965;28;20381;-81
2022/02/19 02:40:35;;;;;;;13.65;2.08;;;;;;;4.91;67.92;100818.03;5037343;28;20375;-81
2022/02/19 02:43:02;;;;;;;9.30;2.30;;;;;;;4.90;67.17;100835.34;5019189;28;20108;-80
2022/02/19 02:45:28;;;;;;;12.73;1.67;;;;;;;4.89;67.56;100838.81;5020161;28;20037;-80
2022/02/19 02:47:53;;;;;;;9.25;1.70;;;;;;;4.87;67.49;100830.19;4985954;28;20060;-80
2022/02/19 02:50:19;;;;;;;10.32;1.45;;;;;;;4.87;67.38;100840.56;5019851;28;20037;-81
2022/02/19 02:52:44;;;;;;;13.82;2.28;;;;;;;4.88;67.13;100838.84;5037645;28;20064;-81
2022/02/19 02:55:11;;;;;;;10.65;1.65;;;;;;;4.90;66.62;100876.84;5019532;28;20045;-80
2022/02/19 02:57:37;;;;;;;10.90;1.65;;;;;;;4.89;66.55;100841.41;5036615;28;20037;-81
2022/02/19 03:00:08;;;;;;;15.25;2.05;;;;;;;4.88;66.23;100854.41;5018571;28;20292;-81
2022/02/19 03:02:34;;;;;;;14.75;1.70;;;;;;;4.89;66.46;100877.72;5037008;28;20052;-80
2022/02/19 03:05:00;;;;;;;14.27;3.80;;;;;;;4.91;66.76;100864.72;5019265;28;20060;-81
2022/02/19 03:07:26;;;;;;;14.30;1.98;;;;;;;4.88;67.09;100872.59;5019030;28;20072;-81
2022/02/19 03:09:52;;;;;;;10.00;2.10;;;;;;;4.84;67.26;100855.34;5036602;28;20045;-81
2022/02/19 03:12:17;;;;;;;10.30;2.08;;;;;;;4.84;66.58;100866.59;5037307;28;20403;-79
2022/02/19 03:14:43;;;;;;;15.43;2.42;;;;;;;4.83;66.79;100877.84;5003566;28;20341;-79
2022/02/19 03:17:08;;;;;;;11.27;2.13;;;;;;;4.84;66.85;100869.19;5037198;28;20108;-78
2022/02/19 03:19:33;;;;;;;13.18;2.15;;;;;;;4.83;67.36;100875.25;5019653;28;20045;-81
2022/02/19 03:21:59;;;;;;;12.10;1.83;;;;;;;4.81;67.06;100914.19;5019015;28;20054;-81
2022/02/19 03:24:24;;;;;;;5.90;1.73;;;;;;;4.81;66.22;100895.19;5037021;28;20108;-81
2022/02/19 03:26:50;;;;;;;5.50;1.77;;;;;;;4.82;65.90;100904.69;5002560;28;20033;-80
2022/02/19 03:29:15;;;;;;;9.77;1.95;;;;;;;4.83;66.22;100919.34;5037032;28;20063;-81
2022/02/19 03:31:41;;;;;;;14.50;1.98;;;;;;;4.82;66.82;100912.47;5037026;28;20120;-81
2022/02/19 03:34:06;;;;;;;12.57;1.52;;;;;;;4.82;66.54;100928.03;5036419;28;20203;-81
2022/02/19 03:36:31;;;;;;;15.95;2.25;;;;;;;4.83;66.76;100926.28;5017299;28;20286;-82
2022/02/19 03:38:57;;;;;;;7.43;1.40;;;;;;;4.86;66.52;100939.19;5035284;28;20029;-81
2022/02/19 03:41:22;;;;;;;7.80;1.45;;;;;;;4.85;66.53;100942.69;5017927;28;20351;-81
2022/02/19 03:43:48;;;;;;;9.18;1.90;;;;;;;4.86;66.34;100953.06;5018785;28;20043;-81
2022/02/19 03:46:13;;;;;;;14.07;1.90;;;;;;;4.86;66.60;100952.19;5036965;28;20035;-81
2022/02/19 03:48:38;;;;;;;15.25;2.00;;;;;;;4.88;65.94;100950.44;5018969;28;20049;-81
2022/02/19 03:51:05;;;;;;;15.73;1.90;;;;;;;4.89;65.58;100955.59;5002740;28;20029;-81
2022/02/19 03:53:31;;;;;;;11.52;1.88;;;;;;;4.89;65.44;100944.34;5018950;28;20268;-81
2022/02/19 03:55:56;;;;;;;15.45;1.73;;;;;;;4.89;65.57;100976.34;5018311;28;20044;-81
2022/02/19 03:58:21;;;;;;;11.80;1.88;;;;;;;4.86;66.39;100967.75;5002697;28;20037;-82
2022/02/19 04:00:47;;;;;;;13.45;2.05;;;;;;;4.89;66.09;100953.00;5018663;28;20376;-81
2022/02/19 04:03:12;;;;;;;10.57;1.65;;;;;;;4.88;65.90;100969.47;5019220;28;20228;-82
2022/02/19 04:05:38;;;;;;;11.45;1.67;;;;;;;4.86;66.45;100968.63;5005835;28;20116;-81
2022/02/19 04:08:05;;;;;;;13.05;2.08;;;;;;;4.92;66.69;101011.78;5021728;28;20112;-81
2022/02/19 04:10:30;;;;;;;5.43;1.35;;;;;;;4.92;66.45;101007.44;5040022;28;20048;-81
2022/02/19 04:12:56;;;;;;;7.70;1.80;;;;;;;4.91;66.51;101020.44;5039955;28;20049;-81
2022/02/19 04:15:22;;;;;;;8.85;1.90;;;;;;;4.93;66.82;101021.28;5022433;28;20033;-81
2022/02/19 04:17:47;;;;;;;7.50;1.50;;;;;;;4.95;66.09;101041.16;5040266;28;20037;-81
2022/02/19 04:20:13;;;;;;;11.13;1.90;;;;;;;4.92;66.36;101028.22;5039731;28;20104;-82
2022/02/19 04:22:41;;;;;;;20.90;2.20;;;;;;;4.90;66.71;101021.34;5002517;28;20046;-82
2022/02/19 04:25:08;;;;;;;10.63;1.77;;;;;;;4.91;66.57;101031.72;5009652;28;20049;-82
2022/02/19 04:27:33;;;;;;;6.00;1.10;;;;;;;4.89;67.11;101040.38;5039413;28;20324;-82
2022/02/19 04:29:59;;;;;;;8.43;1.58;;;;;;;4.90;65.74;101058.53;5021780;28;20022;-81
2022/02/19 04:32:25;;;;;;;11.98;2.55;;;;;;;4.90;66.07;101042.09;5005806;28;20052;-82
2022/02/19 04:34:50;;;;;;;10.75;2.03;;;;;;;4.91;66.55;101047.28;5039600;28;20049;-82
2022/02/19 04:37:15;;;;;;;10.05;1.70;;;;;;;4.87;66.26;101035.22;5039579;28;20105;-81
2022/02/19 04:39:41;;;;;;;10.50;2.50;;;;;;;4.87;66.95;101057.72;5039348;28;20044;-81
2022/02/19 04:42:06;;;;;;;11.50;2.22;;;;;;;4.84;66.52;101061.22;5036868;28;20037;-81
2022/02/19 04:44:34;;;;;;;7.20;1.70;;;;;;;4.85;66.79;101064.66;5020653;28;20142;-81
2022/02/19 04:46:59;;;;;;;15.23;1.80;;;;;;;4.82;66.71;101055.19;5039292;28;20037;-81
2022/02/19 04:49:24;;;;;;;16.20;2.58;;;;;;;4.77;67.32;101072.56;5021210;28;20052;-81
2022/02/19 04:51:50;;;;;;;10.75;1.98;;;;;;;4.78;67.62;101074.25;5039068;28;20048;-81
2022/02/19 04:54:16;;;;;;;15.30;1.80;;;;;;;4.75;67.88;101067.38;5022142;28;20299;-81
2022/02/19 04:56:42;;;;;;;8.68;1.30;;;;;;;4.74;67.58;101091.59;5005125;28;20025;-81
2022/02/19 04:59:07;;;;;;;10.35;2.10;;;;;;;4.75;67.46;101077.75;5021088;28;20049;-81
2022/02/19 05:01:32;;;;;;;10.57;1.45;;;;;;;4.74;67.30;101078.63;5039110;28;20052;-81
2022/02/19 05:03:58;;;;;;;13.38;1.88;;;;;;;4.74;67.74;101080.38;5021289;28;20057;-81
2022/02/19 05:06:23;;;;;;;8.90;1.60;;;;;;;4.73;67.92;101099.41;5005105;28;20029;-81
2022/02/19 05:08:49;;;;;;;8.43;1.73;;;;;;;4.74;67.26;101101.97;5005078;28;20117;-81
2022/02/19 05:11:16;;;;;;;12.32;1.70;;;;;;;4.75;66.83;101097.66;5021221;28;20272;-81
2022/02/19 05:13:41;;;;;;;13.73;1.75;;;;;;;4.75;67.02;101095.94;5021225;28;20049;-81
2022/02/19 05:16:06;;;;;;;11.52;2.13;;;;;;;4.73;67.42;101110.66;5004680;28;20400;-82
2022/02/19 05:18:32;;;;;;;9.73;1.85;;;;;;;4.73;67.34;101122.75;5038992;28;20041;-81
2022/02/19 05:20:57;;;;;;;6.15;1.88;;;;;;;4.72;67.75;101105.47;5038631;28;20128;-81
2022/02/19 05:23:22;;;;;;;15.75;2.42;;;;;;;4.69;67.79;101119.34;5021077;28;20104;-81
2022/02/19 05:25:49;;;;;;;13.48;1.83;;;;;;;4.70;67.79;101117.63;5000668;28;20318;-81
2022/02/19 05:28:14;;;;;;;9.20;1.85;;;;;;;4.69;67.82;101114.13;5020441;28;20048;-81
2022/02/19 05:30:40;;;;;;;13.05;2.13;;;;;;;4.68;67.50;101130.59;5003215;28;20239;-81
2022/02/19 05:33:05;;;;;;;7.25;1.80;;;;;;;4.66;67.90;101119.38;5020916;28;20383;-81
2022/02/19 05:35:31;;;;;;;12.60;1.77;;;;;;;4.68;67.55;101166.94;5039089;28;20056;-81
2022/02/19 05:37:56;;;;;;;12.68;1.60;;;;;;;4.65;67.70;101122.84;5038028;28;20040;-82
2022/02/19 05:40:22;;;;;;;10.75;1.80;;;;;;;4.63;68.22;101142.75;5021341;28;20237;-82
2022/02/19 05:42:47;;;;;;;11.23;1.98;;;;;;;4.64;68.44;101135.81;5036054;28;20052;-82
2022/02/19 05:45:13;;;;;;;15.75;2.38;;;;;;;4.64;68.07;101138.44;5037228;28;20044;-82
2022/02/19 05:47:38;;;;;;;9.65;1.85;;;;;;;4.61;68.59;101134.16;5018975;28;20033;-81
2022/02/19 05:50:05;;;;;;;6.13;1.60;;;;;;;4.59;68.46;101135.91;4995596;28;20037;-81
2022/02/19 05:52:30;;;;;;;12.02;1.95;;;;;;;4.53;68.81;101130.75;5017412;28;20021;-81
2022/02/19 05:54:56;;;;;;;8.00;1.60;;;;;;;4.54;69.05;101142.88;5020842;28;20322;-81
2022/02/19 05:57:22;;;;;;;11.00;1.80;;;;;;;4.56;68.69;101161.88;5000811;28;20042;-80
2022/02/19 05:59:49;;;;;;;13.68;2.45;;;;;;;4.56;68.50;101154.09;5000832;28;20029;-81
2022/02/19 06:02:15;;;;;;;13.25;1.95;;;;;;;4.56;68.50;101144.56;5012088;28;20053;-81
2022/02/19 06:04:40;;;;;;;11.40;2.47;;;;;;;4.55;68.79;101153.22;5038643;28;20025;-81
2022/02/19 06:07:06;;;;;;;16.10;2.45;;;;;;;4.55;68.88;101166.19;5038393;28;20045;-82
2022/02/19 06:09:33;;;;;;;13.23;2.33;;;;;;;4.56;69.24;101160.13;5020364;28;20037;-81
2022/02/19 06:11:59;;;;;;;21.10;1.70;;;;;;;4.52;69.52;101161.03;5037662;28;20284;-81
2022/02/19 06:14:25;;;;;;;13.27;1.40;;;;;;;4.56;68.90;101178.28;5019919;28;20041;-82
2022/02/19 06:16:50;;;;;;;8.93;1.40;;;;;;;4.57;68.06;101163.59;5020532;28;20209;-81
2022/02/19 06:19:16;;;;;;;11.68;1.30;;;;;;;4.58;67.99;101170.47;5038039;28;20082;-82
2022/02/19 06:21:42;;;;;;;11.68;1.50;;;;;;;4.58;67.83;101170.47;5003843;28;20045;-81
2022/02/19 06:24:07;;;;;;;7.43;1.38;;;;;;;4.58;68.54;101168.78;5019407;28;20045;-81
2022/02/19 06:26:33;;;;;;;10.85;1.48;;;;;;;4.58;68.73;101199.03;5036571;28;20424;-81
2022/02/19 06:28:58;;;;;;;7.82;1.73;;;;;;;4.58;69.09;101191.25;5020093;28;20037;-81
2022/02/19 06:31:24;;;;;;;13.02;1.77;;;;;;;4.56;69.19;101198.19;5020039;28;20057;-82
2022/02/19 06:33:49;;;;;;;14.85;1.52;;;;;;;4.52;69.23;101189.56;5003380;28;20017;-82
2022/02/19 06:36:15;;;;;;;10.68;2.20;;;;;;;4.53;68.70;101193.00;5037327;28;20095;-81
2022/02/19 06:38:41;;;;;;;8.23;1.25;;;;;;;4.52;68.52;101207.72;5002752;28;20033;-82
2022/02/19 06:41:07;;;;;;;6.80;1.52;;;;;;;4.57;67.88;101210.28;5029321;28;20044;-81
2022/02/19 06:43:33;;;;;;;10.93;1.63;;;;;;;4.57;68.03;101199.91;5034016;28;20041;-82
2022/02/19 06:45:59;;;;;;;10.82;1.98;;;;;;;4.61;67.46;101214.56;5028206;28;20136;-81
2022/02/19 06:48:24;;;;;;;9.57;1.55;;;;;;;4.63;67.41;101207.63;5033851;28;20307;-82
2022/02/19 06:50:50;;;;;;;9.48;1.58;;;;;;;4.64;67.57;101229.22;5017876;28;20030;-81
2022/02/19 06:53:15;;;;;;;12.43;1.73;;;;;;;4.63;67.77;101225.78;5033150;28;20064;-81
2022/02/19 06:55:40;;;;;;;9.15;1.67;;;;;;;4.60;68.12;101220.59;5012461;28;20060;-82
2022/02/19 06:58:06;;;;;;;20.83;2.60;;;;;;;4.62;68.48;101231.88;5024739;28;20049;-82
2022/02/19 07:00:31;;;;;;;6.88;1.58;;;;;;;4.63;68.71;101227.53;5033732;28;20045;-81
2022/02/19 07:02:57;;;;;;;11.63;1.45;;;;;;;4.59;68.85;101239.66;5033143;28;20026;-82
2022/02/19 07:05:22;;;;;;;9.38;1.65;;;;;;;4.60;69.14;101244.84;5001049;28;20037;-82
2022/02/19 07:07:48;;;;;;;10.18;1.90;;;;;;;4.57;68.43;101231.88;5015866;28;20037;-81
2022/02/19 07:10:13;;;;;;;7.15;1.67;;;;;;;4.58;68.14;101250.91;5031164;28;20383;-81
2022/02/19 07:12:39;;;;;;;9.20;1.92;;;;;;;4.56;67.85;101250.06;5016662;28;20623;-81
2022/02/19 07:15:09;;;;;;;6.90;1.30;;;;;;;4.57;67.57;101256.97;5034688;28;20045;-81
2022/02/19 07:17:45;;;;;;;7.13;1.20;;;;;;;4.57;67.76;101255.25;5014247;28;20069;-82
2022/02/19 07:20:11;;;;;;;6.28;1.08;;;;;;;4.57;68.17;101256.97;5033900;28;20105;-82
2022/02/19 07:22:36;;;;;;;11.50;2.10;;;;;;;4.56;68.35;101270.81;5017456;28;20049;-81
2022/02/19 07:25:02;;;;;;;9.68;1.38;;;;;;;4.55;68.31;101243.16;4983252;28;20100;-82
2022/02/19 07:27:36;;;;;;;8.10;1.75;;;;;;;4.56;68.46;101276.00;5033004;28;20083;-81
2022/02/19 07:30:02;;;;;;;9.52;1.60;;;;;;;4.56;68.54;101288.97;5034977;28;20033;-82
2022/02/19 07:32:27;;;;;;;3.38;1.05;;;;;;;4.61;68.49;101288.06;5027667;28;20071;-82
2022/02/19 07:34:53;;;;;;;6.18;1.42;;;;;;;4.63;68.51;101290.63;5028886;28;20283;-81
2022/02/19 07:37:18;;;;;;;9.65;1.92;;;;;;;4.61;68.48;101280.28;5026611;28;20057;-82
2022/02/19 07:39:43;;;;;;;6.13;1.45;;;;;;;4.63;68.58;101302.75;5019154;28;20056;-82
2022/02/19 07:42:09;;;;;;;7.78;1.75;;;;;;;4.63;68.29;101287.19;5036961;28;20289;-81
2022/02/19 07:44:34;;;;;;;10.65;1.83;;;;;;;4.63;68.01;101293.22;5039148;28;20040;-82
2022/02/19 07:46:59;;;;;;;8.88;1.90;;;;;;;4.63;67.63;101295.81;5039091;28;20116;-82
2022/02/19 08:00:21;;;;;;;11.98;1.35;;;;;;;4.61;68.55;101311.41;5006379;28;20048;-82
2022/02/19 08:02:46;;;;;;;10.13;1.85;;;;;;;4.63;68.41;101316.59;5038591;28;20045;-82
2022/02/19 08:05:11;;;;;;;10.10;1.73;;;;;;;4.63;68.09;101306.19;5020354;28;20025;-82
2022/02/19 08:07:37;;;;;;;5.85;1.38;;;;;;;4.66;68.05;101318.28;5034030;28;20218;-81
2022/02/19 08:10:03;;;;;;;9.00;2.10;;;;;;;4.66;68.08;101328.66;5037863;28;20065;-81
2022/02/19 08:12:28;;;;;;;10.55;1.60;;;;;;;4.67;68.48;101320.88;5038719;28;20433;-81
2022/02/19 08:14:54;;;;;;;9.45;1.52;;;;;;;4.68;68.55;101325.19;5038022;28;20042;-82
2022/02/19 08:17:19;;;;;;;11.82;1.85;;;;;;;4.71;68.59;101334.66;5037902;28;20041;-82
2022/02/19 08:19:45;;;;;;;11.30;1.58;;;;;;;4.72;68.87;101350.22;5020577;28;20092;-81
2022/02/19 08:22:10;;;;;;;11.18;1.40;;;;;;;4.74;68.68;101339.84;5020476;28;20306;-82
2022/02/19 08:24:35;;;;;;;8.63;1.67;;;;;;;4.75;68.09;101360.59;5034567;28;20284;-81
2022/02/19 08:27:01;;;;;;;10.55;1.70;;;;;;;4.74;67.99;101343.28;5036725;28;20048;-81
2022/02/19 08:29:26;;;;;;;13.25;1.83;;;;;;;4.75;68.03;101350.22;5036897;28;20038;-82
2022/02/19 08:31:51;;;;;;;12.13;1.65;;;;;;;4.76;68.85;101351.06;5037950;28;20041;-82
2022/02/19 08:34:17;;;;;;;8.35;1.38;;;;;;;4.83;68.62;101370.06;5037764;28;20038;-81
2022/02/19 08:36:42;;;;;;;13.40;1.70;;;;;;;4.85;68.72;101371.75;5020259;28;20040;-82
2022/02/19 08:39:08;;;;;;;13.80;2.47;;;;;;;4.89;69.49;101372.59;4998672;28;20294;-82
2022/02/19 08:41:33;;;;;;;9.02;1.73;;;;;;;4.87;70.39;101356.16;5037123;28;20097;-82
2022/02/19 08:43:58;;;;;;;14.80;1.85;;;;;;;4.90;70.70;101361.34;4998227;28;20037;-82
2022/02/19 08:46:25;;;;;;;12.52;1.80;;;;;;;4.97;70.26;101363.88;5015995;28;20298;-82
2022/02/19 08:48:50;;;;;;;8.35;1.33;;;;;;;5.02;70.43;101368.16;5014823;28;20202;-82
2022/02/19 08:51:15;;;;;;;12.23;1.20;;;;;;;5.07;69.92;101362.03;5002066;28;20063;-81
2022/02/19 08:53:41;;;;;;;8.93;1.42;;;;;;;5.12;69.72;101369.78;5018041;28;20038;-82
2022/02/19 08:56:06;;;;;;;9.07;1.85;;;;;;;5.11;69.35;101387.13;5035197;28;20629;-82
2022/02/19 08:58:32;;;;;;;16.33;2.83;;;;;;;5.10;69.37;101400.97;5012381;28;20033;-81
2022/02/19 09:00:57;;;;;;;10.18;1.63;;;;;;;5.11;69.01;101394.91;5016993;28;20424;-81
2022/02/19 09:03:23;;;;;;;6.25;1.83;;;;;;;5.12;68.53;101409.59;5014155;28;20064;-81
2022/02/19 09:05:49;;;;;;;11.63;1.50;;;;;;;5.14;68.76;101401.78;5034365;28;20300;-82
2022/02/19 09:08:15;;;;;;;16.60;1.60;;;;;;;5.15;69.20;101432.09;5018416;28;20042;-81
2022/02/19 09:10:40;;;;;;;14.00;1.88;;;;;;;5.19;68.48;101407.81;5018600;28;20045;-81
2022/02/19 09:13:06;;;;;;;14.20;1.77;;;;;;;5.21;69.22;101395.66;4999130;28;20055;-82
2022/02/19 09:15:32;;;;;;;10.93;1.38;;;;;;;5.23;69.59;101393.91;5017617;28;20236;-81
2022/02/19 09:17:57;;;;;;;11.85;2.28;;;;;;;5.26;69.57;101390.44;5033366;28;20349;-81
2022/02/19 09:20:22;;;;;;;8.18;1.77;;;;;;;5.25;68.95;101412.06;5019842;28;20346;-81
2022/02/19 09:22:49;;;;;;;10.73;1.35;;;;;;;5.24;69.19;101393.06;5017708;28;20093;-82
2022/02/19 09:25:15;;;;;;;11.65;1.58;;;;;;;5.27;69.37;101402.53;5017393;28;20029;-82
2022/02/19 09:27:41;;;;;;;8.75;2.00;;;;;;;5.30;69.88;101389.53;5035568;28;20357;-82
2022/02/19 09:30:08;;;;;;;7.38;2.30;;;;;;;5.37;70.01;101409.38;5033738;28;20717;-81
2022/02/19 09:32:34;;;;;;;10.32;1.80;;;;;;;5.40;69.11;101391.13;5036089;28;20256;-82
2022/02/19 09:35:00;;;;;;;8.50;1.75;;;;;;;5.41;68.48;101412.81;5015547;28;20046;-82
2022/02/19 09:37:28;;;;;;;11.95;1.75;;;;;;;5.43;68.62;101419.69;5033117;28;20040;-81
2022/02/19 09:39:55;;;;;;;5.75;1.17;;;;;;;5.43;68.78;101395.47;5031388;28;20254;-82
2022/02/19 09:42:21;;;;;;;5.38;0.98;;;;;;;5.45;69.01;101409.28;5017013;28;20108;-82
2022/02/19 09:44:47;;;;;;;14.73;1.38;;;;;;;5.45;69.29;101406.69;5014784;28;20044;-82
2022/02/19 09:47:14;;;;;;;9.15;2.47;;;;;;;5.46;69.11;101418.81;5033530;28;20041;-82
2022/02/19 09:49:40;;;;;;;10.45;1.95;;;;;;;5.47;69.64;101423.13;5033523;28;20323;-81
2022/02/19 09:52:06;;;;;;;14.95;2.28;;;;;;;5.48;70.06;101427.44;4999065;28;20109;-82
2022/02/19 09:54:31;;;;;;;16.83;1.55;;;;;;;5.53;68.64;101415.25;5033081;28;20037;-81
2022/02/19 09:56:56;;;;;;;12.52;1.30;;;;;;;5.57;69.07;101422.16;5037402;28;20041;-82
2022/02/19 09:59:22;;;;;;;9.38;1.90;;;;;;;5.62;68.78;101422.09;5029137;28;20115;-82
2022/02/19 10:02:01;;;;;;;17.08;2.08;;;;;;;5.63;69.22;101429.88;5033944;28;20332;-82
2022/02/19 10:04:26;;;;;;;10.05;1.80;;;;;;;5.62;69.02;101425.56;5036227;28;20249;-81
2022/02/19 10:06:52;;;;;;;9.40;1.77;;;;;;;5.64;69.81;101438.53;5033705;28;20026;-82
2022/02/19 10:09:19;;;;;;;15.13;1.80;;;;;;;5.64;69.62;101435.91;5036166;28;20063;-82
2022/02/19 10:11:46;;;;;;;9.57;1.60;;;;;;;5.64;70.35;101434.22;5033690;28;20072;-82
2022/02/19 10:14:24;;;;;;;17.85;2.25;;;;;;;5.68;70.80;101432.44;5019856;28;20326;-82
2022/02/19 10:17:03;;;;;;;12.90;1.85;;;;;;;5.70;71.08;101444.53;5024944;28;20248;-82
2022/02/19 10:19:28;;;;;;;;;;;;;;;5.72;70.20;101437.56;5036472;28;20326;-82
2022/02/19 10:22:11;;;;;;;13.70;1.52;;;;;;;5.74;69.68;101429.75;5018533;28;19946;-81
2022/02/19 10:24:37;;;;;;;12.07;2.20;;;;;;;5.77;69.17;101450.53;5034194;28;20041;-82
2022/02/19 10:27:03;;;;;;;7.65;1.67;;;;;;;5.80;68.39;101466.06;5035592;28;20107;-82
2022/02/19 10:29:32;;;;;;;9.38;1.45;;;;;;;5.80;68.98;101457.41;5037195;28;20029;-82
2022/02/19 10:31:57;;;;;;;8.90;1.58;;;;;;;5.81;69.63;101446.16;5033961;28;20052;-82
2022/02/19 10:34:23;;;;;;;8.35;1.63;;;;;;;5.86;70.25;101440.03;5014478;28;20225;-81
2022/02/19 10:36:56;;;;;;;14.52;2.03;;;;;;;5.96;70.53;101428.66;5015952;28;20276;-82
2022/02/19 10:39:42;;;;;;;7.07;1.00;;;;;;;6.00;70.77;101424.28;5006799;28;20071;-82
2022/02/19 10:42:10;;;;;;;12.50;1.60;;;;;;;6.06;70.59;101439.81;5034512;28;20041;-82
2022/02/19 10:44:36;;;;;;;14.20;2.75;;;;;;;6.08;69.01;101440.66;5032763;28;20045;-82
2022/02/19 10:47:22;;;;;;;10.68;1.42;;;;;;;6.04;68.38;101441.59;5033019;28;20062;-82
2022/02/19 10:50:21;;;;;;;16.25;2.38;;;;;;;6.03;68.85;101462.41;5016932;28;20040;-82
2022/02/19 10:52:57;;;;;;;15.13;1.60;;;;;;;6.03;69.66;101450.25;5031832;28;20042;-82
2022/02/19 10:55:28;;;;;;;7.97;1.40;;;;;;;6.02;69.10;101455.47;5047885;28;20075;-82
2022/02/19 10:57:59;;;;;;;11.38;1.70;;;;;;;6.01;69.40;101456.34;5013618;28;20048;-82
2022/02/19 11:00:26;;;;;;;11.05;1.88;;;;;;;6.02;69.53;101447.66;5035371;28;20025;-82
2022/02/19 11:02:52;;;;;;;16.73;2.20;;;;;;;6.02;68.83;101440.75;5034753;28;20304;-82
2022/02/19 11:05:19;;;;;;;10.30;1.85;;;;;;;6.06;68.03;101465.81;5034741;28;20036;-82
2022/02/19 11:07:47;;;;;;;9.55;1.55;;;;;;;6.07;68.39;101443.28;5030976;28;20053;-82
2022/02/19 11:10:17;;;;;;;10.70;1.67;;;;;;;6.10;68.24;101459.69;5034114;28;20037;-82
2022/02/19 11:12:43;;;;;;;12.27;1.70;;;;;;;6.10;68.27;101440.63;5035621;28;20033;-82
2022/02/19 11:15:10;;;;;;;9.23;2.25;;;;;;;6.10;67.86;101438.03;5035281;28;20363;-82
2022/02/19 11:17:36;;;;;;;8.98;1.80;;;;;;;6.13;67.70;101437.97;5038763;28;20040;-81
2022/02/19 11:20:08;;;;;;;8.68;1.70;;;;;;;6.17;65.98;101446.59;5020897;28;20021;-81
2022/02/19 11:22:36;;;;;;;12.45;1.42;;;;;;;6.18;65.91;101449.19;5038768;28;20060;-82
2022/02/19 11:25:08;;;;;;;11.88;1.40;;;;;;;6.17;65.35;101429.28;5020136;28;20475;-82
2022/02/19 11:27:40;;;;;;;10.25;1.60;;;;;;;6.18;67.09;101430.13;5038788;28;20032;-82
2022/02/19 11:30:08;;;;;;;10.88;1.45;;;;;;;6.17;65.22;101423.19;5038668;28;20058;-82
2022/02/19 11:32:37;;;;;;;12.43;1.40;;;;;;;6.15;66.81;101433.66;5037904;28;20083;-82
2022/02/19 11:35:03;;;;;;;9.23;1.48;;;;;;;6.17;65.93;101434.50;5032294;28;20208;-81
2022/02/19 11:37:29;;;;;;;12.65;2.17;;;;;;;6.17;66.00;101429.28;5034764;28;20029;-82